Time;durP1;ratioP1;P1;durP2;ratioP2;P2;SDS_P1;SDS_P2;PMS_P1;PMS_P2;Temp;Humidity;BMP_temperature;BMP_pressure;BME280_temperature;BME280_humidity;BME280_pressure;Samples;Min_cycle;Max_cycle;Signal;HPM_P1;HPM_P2
2021/07/27 00:01:13;;;;;;;6.38;4.60;;;18.70;99.90;;;;;;5030853;28;20501;-69
2021/07/27 00:03:40;;;;;;;8.60;4.78;;;18.70;99.90;;;;;;5030788;28;20037;-69
2021/07/27 00:06:07;;;;;;;7.60;4.25;;;18.70;99.90;;;;;;5032122;28;20044;-69
2021/07/27 00:08:37;;;;;;;7.55;4.60;;;18.70;99.90;;;;;;5031891;28;20486;-70
2021/07/27 00:11:09;;;;;;;10.18;4.82;;;18.60;99.90;;;;;;5032221;28;20394;-69
2021/07/27 00:13:37;;;;;;;7.82;4.00;;;18.70;99.90;;;;;;5031976;28;20095;-70
2021/07/27 00:16:03;;;;;;;6.55;4.10;;;18.70;99.90;;;;;;5031995;28;20061;-71
2021/07/27 00:18:32;;;;;;;11.15;4.97;;;18.70;99.90;;;;;;5031978;28;20030;-70
2021/07/27 00:21:02;;;;;;;7.35;4.57;;;18.70;99.90;;;;;;5030721;28;20108;-70
2021/07/27 00:23:28;;;;;;;6.10;3.75;;;18.70;99.90;;;;;;5034985;28;20083;-70
2021/07/27 00:25:53;;;;;;;9.00;4.22;;;18.70;99.90;;;;;;5036361;28;20467;-70
2021/07/27 00:28:19;;;;;;;9.40;4.45;;;18.70;99.90;;;;;;5036216;28;20092;-70
2021/07/27 00:30:46;;;;;;;7.22;4.32;;;18.70;99.90;;;;;;5035891;28;20033;-70
2021/07/27 00:33:11;;;;;;;6.55;4.15;;;18.60;99.90;;;;;;5036167;28;20049;-70
2021/07/27 00:35:37;;;;;;;8.18;4.38;;;18.60;99.90;;;;;;5036177;28;20025;-70
2021/07/27 00:38:09;;;;;;;6.72;4.50;;;18.60;99.90;;;;;;5035890;28;20433;-70
2021/07/27 00:40:39;;;;;;;6.35;3.90;;;18.60;99.90;;;;;;5035815;28;20060;-70
2021/07/27 00:43:10;;;;;;;11.45;4.45;;;18.50;99.90;;;;;;5034616;28;20038;-70
2021/07/27 00:45:36;;;;;;;7.07;4.32;;;18.50;99.90;;;;;;5035625;28;20091;-71
2021/07/27 00:48:02;;;;;;;7.70;3.58;;;18.50;99.90;;;;;;5034653;28;20037;-70
2021/07/27 00:50:28;;;;;;;7.13;4.47;;;18.50;99.90;;;;;;5035941;28;20033;-70
2021/07/27 00:53:00;;;;;;;9.32;4.55;;;18.50;99.90;;;;;;5034572;28;20029;-70
2021/07/27 00:55:27;;;;;;;7.43;4.50;;;18.40;99.90;;;;;;5035505;28;20037;-70
2021/07/27 00:57:54;;;;;;;6.50;4.68;;;18.30;99.90;;;;;;5035505;28;20029;-70
2021/07/27 01:00:20;;;;;;;8.80;4.70;;;18.30;99.90;;;;;;5034268;28;20030;-70
2021/07/27 01:02:46;;;;;;;7.82;4.97;;;18.20;99.90;;;;;;5035529;28;20164;-71
2021/07/27 01:05:13;;;;;;;7.93;4.47;;;18.20;99.90;;;;;;5034180;28;20116;-70
2021/07/27 01:07:40;;;;;;;8.13;5.22;;;18.20;99.90;;;;;;5033810;28;20433;-70
2021/07/27 01:10:09;;;;;;;10.05;5.53;;;18.10;99.90;;;;;;5034532;28;20115;-70
2021/07/27 01:12:35;;;;;;;12.18;5.88;;;18.10;99.90;;;;;;5035382;28;20057;-70
2021/07/27 01:15:03;;;;;;;9.88;5.63;;;18.10;99.90;;;;;;5034259;28;20120;-70
2021/07/27 01:17:29;;;;;;;7.88;5.35;;;18.10;99.90;;;;;;5033678;28;20036;-70
2021/07/27 01:20:08;;;;;;;10.13;5.65;;;18.20;99.90;;;;;;5035359;28;20041;-70
2021/07/27 01:44:03;;;;;;;8.18;4.65;;;18.60;99.90;;;;;;5033123;28;20487;-70
2021/07/27 01:46:36;;;;;;;7.85;4.32;;;18.70;99.90;;;;;;5034862;28;20116;-70
2021/07/27 01:49:02;;;;;;;7.22;4.35;;;18.60;99.90;;;;;;5034831;28;20049;-70
2021/07/27 01:51:31;;;;;;;7.97;4.20;;;18.60;99.90;;;;;;5033601;28;20031;-70
2021/07/27 01:53:57;;;;;;;7.97;4.22;;;18.80;99.90;;;;;;5034414;28;20037;-70
2021/07/27 01:56:24;;;;;;;5.60;4.00;;;18.70;99.90;;;;;;5033197;28;20120;-70
2021/07/27 01:58:51;;;;;;;6.63;4.05;;;18.70;99.90;;;;;;5033380;28;20037;-70
2021/07/27 02:01:20;;;;;;;8.10;4.43;;;18.70;99.90;;;;;;5034628;28;20030;-70
2021/07/27 02:03:46;;;;;;;8.77;5.40;;;18.70;99.90;;;;;;5033217;28;20026;-70
2021/07/27 02:06:12;;;;;;;8.07;4.40;;;18.70;99.90;;;;;;5033346;28;20072;-70
2021/07/27 02:08:37;;;;;;;7.97;4.50;;;18.60;99.90;;;;;;5034212;28;20034;-70
2021/07/27 02:11:06;;;;;;;7.15;4.05;;;18.70;99.90;;;;;;5032965;28;20065;-69
2021/07/27 02:13:45;;;;;;;5.78;4.32;;;18.70;99.90;;;;;;5032712;28;20034;-70
2021/07/27 02:16:11;;;;;;;8.85;4.80;;;18.70;99.90;;;;;;5032760;28;20425;-69
2021/07/27 02:18:37;;;;;;;6.28;4.00;;;18.70;99.90;;;;;;5033026;28;20059;-70
2021/07/27 02:21:02;;;;;;;9.52;5.22;;;18.70;99.90;;;;;;5033901;28;20026;-69
2021/07/27 02:23:29;;;;;;;7.57;4.38;;;18.70;99.90;;;;;;5033959;28;20240;-69
2021/07/27 02:25:55;;;;;;;6.05;3.97;;;18.70;99.90;;;;;;5033841;28;20394;-69
2021/07/27 02:28:20;;;;;;;6.60;4.43;;;18.70;99.90;;;;;;5033776;28;20037;-69
2021/07/27 02:30:53;;;;;;;7.55;4.22;;;18.70;99.90;;;;;;5033879;28;20025;-70
2021/07/27 02:33:20;;;;;;;6.22;4.00;;;18.70;99.90;;;;;;5000718;28;20168;-70
2021/07/27 02:35:46;;;;;;;6.35;4.05;;;18.70;99.90;;;;;;5016228;28;20053;-69
2021/07/27 02:38:11;;;;;;;8.05;3.78;;;18.60;99.90;;;;;;5033901;28;20030;-69
2021/07/27 02:40:37;;;;;;;7.60;4.10;;;18.60;99.90;;;;;;5033792;28;20034;-69
2021/07/27 02:43:04;;;;;;;8.43;4.32;;;18.60;99.90;;;;;;5033792;28;20025;-69
2021/07/27 02:45:32;;;;;;;6.80;5.00;;;18.50;99.90;;;;;;5032095;28;20045;-69
2021/07/27 02:47:58;;;;;;;9.20;5.00;;;18.40;99.90;;;;;;5032576;28;20029;-69
2021/07/27 02:50:27;;;;;;;7.65;5.25;;;18.20;99.90;;;;;;5033528;28;20474;-69
2021/07/27 02:52:53;;;;;;;7.68;4.90;;;18.10;99.90;;;;;;5032195;28;20033;-69
2021/07/27 02:55:19;;;;;;;9.95;5.43;;;17.90;99.90;;;;;;5032339;28;20057;-69
2021/07/27 02:57:48;;;;;;;10.18;5.65;;;17.80;99.90;;;;;;5033377;28;20057;-69
2021/07/27 03:00:15;;;;;;;8.80;5.63;;;17.80;99.90;;;;;;5032401;28;20053;-69
2021/07/27 03:02:44;;;;;;;10.90;6.07;;;17.80;99.90;;;;;;5032111;28;20112;-69
2021/07/27 03:05:13;;;;;;;10.50;5.57;;;17.70;99.90;;;;;;5033120;28;20030;-69
2021/07/27 03:12:55;;;;;;;13.27;7.50;;;17.60;99.90;;;;;;5031849;28;20531;-69
2021/07/27 03:15:29;;;;;;;14.73;7.55;;;17.60;99.90;;;;;;5031775;28;20033;-69
2021/07/27 03:17:59;;;;;;;9.38;6.13;;;17.80;99.90;;;;;;5031491;28;20437;-69
2021/07/27 03:20:27;;;;;;;10.35;7.28;;;18.00;99.90;;;;;;5032891;28;20021;-69
2021/07/27 03:22:56;;;;;;;12.18;6.82;;;18.00;99.90;;;;;;5032637;28;20033;-69
2021/07/27 03:25:23;;;;;;;10.60;5.95;;;18.10;99.90;;;;;;5032753;28;20098;-69
2021/07/27 03:27:51;;;;;;;9.80;5.80;;;18.20;99.90;;;;;;5032469;28;20030;-69
2021/07/27 03:30:21;;;;;;;10.05;5.82;;;18.40;99.90;;;;;;5031844;28;20116;-69
2021/07/27 03:32:49;;;;;;;8.37;5.90;;;18.40;99.90;;;;;;5032841;28;20068;-69
2021/07/27 03:35:19;;;;;;;6.88;4.88;;;18.50;99.90;;;;;;5031308;28;20120;-70
2021/07/27 03:37:45;;;;;;;8.02;4.88;;;18.40;99.90;;;;;;5031340;28;20394;-69
2021/07/27 03:40:12;;;;;;;7.78;4.60;;;18.40;99.90;;;;;;5032150;28;20022;-69
2021/07/27 03:42:38;;;;;;;8.20;5.50;;;18.40;99.90;;;;;;5003377;28;20045;-69
2021/07/27 03:45:05;;;;;;;9.18;5.63;;;18.40;99.90;;;;;;5030877;28;20056;-67
2021/07/27 03:47:31;;;;;;;7.28;5.22;;;18.30;99.90;;;;;;5030994;28;20026;-69
2021/07/27 03:50:00;;;;;;;9.25;5.50;;;18.30;99.90;;;;;;5032303;28;20037;-69
2021/07/27 03:52:25;;;;;;;8.52;4.95;;;18.40;99.90;;;;;;5031401;28;20035;-70
2021/07/27 03:54:51;;;;;;;7.93;5.30;;;18.30;99.90;;;;;;5032406;28;20112;-69
2021/07/27 03:57:17;;;;;;;12.77;6.40;;;18.10;99.90;;;;;;5034730;28;20401;-73
2021/07/27 03:59:43;;;;;;;11.70;6.45;;;18.00;99.90;;;;;;5032175;28;20037;-72
2021/07/27 04:02:08;;;;;;;12.93;6.75;;;18.00;99.90;;;;;;5031237;28;20033;-72
2021/07/27 04:04:35;;;;;;;8.30;6.30;;;18.00;99.90;;;;;;5032486;28;20083;-72
2021/07/27 04:07:02;;;;;;;9.90;6.80;;;18.10;99.90;;;;;;5032377;28;20044;-72
2021/07/27 04:09:28;;;;;;;13.20;7.43;;;18.20;99.90;;;;;;5032396;28;20033;-72
2021/07/27 04:11:54;;;;;;;8.57;5.43;;;18.30;99.90;;;;;;5030959;28;20029;-70
2021/07/27 04:14:20;;;;;;;8.13;5.47;;;18.40;99.90;;;;;;5030582;28;20034;-70
2021/07/27 04:16:46;;;;;;;8.85;5.63;;;18.40;99.90;;;;;;5032408;28;20032;-68
2021/07/27 04:19:12;;;;;;;10.88;6.60;;;18.30;99.90;;;;;;5050768;28;20033;-68
2021/07/27 04:21:44;;;;;;;10.63;6.38;;;18.10;99.90;;;;;;5052032;28;20385;-67
2021/07/27 04:24:10;;;;;;;12.32;7.15;;;17.90;99.90;;;;;;5052003;28;20043;-66
2021/07/27 04:26:36;;;;;;;13.18;7.15;;;17.80;99.90;;;;;;5052180;28;20581;-68
2021/07/27 04:29:02;;;;;;;12.63;6.40;;;17.70;99.90;;;;;;5051629;28;20060;-67
2021/07/27 04:31:27;;;;;;;9.85;6.97;;;17.60;99.90;;;;;;5052201;28;20496;-66
2021/07/27 04:33:53;;;;;;;10.02;6.25;;;17.60;99.90;;;;;;5051633;28;20033;-65
2021/07/27 04:36:19;;;;;;;13.13;7.18;;;17.50;99.90;;;;;;5052036;28;20041;-65
2021/07/27 04:38:45;;;;;;;11.70;6.68;;;17.40;99.90;;;;;;5051965;28;20029;-67
2021/07/27 04:41:13;;;;;;;9.93;6.78;;;17.40;99.90;;;;;;5051996;28;20380;-71
2021/07/27 04:43:40;;;;;;;10.88;6.80;;;17.50;99.90;;;;;;5051493;28;20386;-67
2021/07/27 04:46:07;;;;;;;9.90;6.57;;;17.40;99.90;;;;;;5051769;28;20488;-69
2021/07/27 04:48:37;;;;;;;11.77;7.50;;;17.40;99.90;;;;;;5036867;28;20076;-69
2021/07/27 04:51:03;;;;;;;10.83;6.83;;;17.50;99.90;;;;;;5031887;28;20197;-69
2021/07/27 04:53:31;;;;;;;10.85;7.03;;;17.50;99.90;;;;;;5030452;28;20568;-69
2021/07/27 04:56:00;;;;;;;11.57;7.32;;;17.40;99.90;;;;;;5031704;28;20492;-69
2021/07/27 04:58:27;;;;;;;9.55;6.22;;;17.50;99.90;;;;;;5031944;28;20087;-69
2021/07/27 05:00:53;;;;;;;12.00;7.05;;;17.50;99.90;;;;;;5031680;28;20430;-70
2021/07/27 05:03:18;;;;;;;9.88;7.13;;;17.50;99.90;;;;;;5028322;28;20129;-70
2021/07/27 05:05:44;;;;;;;11.60;6.95;;;17.50;99.90;;;;;;5031734;28;20045;-70
2021/07/27 05:08:10;;;;;;;9.57;6.70;;;17.50;99.90;;;;;;5030212;28;20041;-69
2021/07/27 05:10:35;;;;;;;11.68;7.07;;;17.50;99.90;;;;;;5034534;28;20033;-69
2021/07/27 05:13:01;;;;;;;11.32;7.00;;;17.60;99.90;;;;;;5033983;28;20545;-72
2021/07/27 05:15:27;;;;;;;11.68;7.53;;;17.60;99.90;;;;;;5034281;28;20071;-70
2021/07/27 05:17:59;;;;;;;12.70;7.53;;;17.60;99.90;;;;;;5043510;28;20035;-70
2021/07/27 05:20:27;;;;;;;10.60;6.43;;;17.70;99.90;;;;;;5055219;28;20043;-71
2021/07/27 05:22:53;;;;;;;11.95;7.82;;;17.80;99.90;;;;;;5054956;28;20029;-71
2021/07/27 05:25:19;;;;;;;13.40;7.00;;;17.80;99.90;;;;;;5055280;28;20534;-61
2021/07/27 05:27:48;;;;;;;14.88;7.90;;;17.80;99.90;;;;;;5052858;28;20112;-62
2021/07/27 05:30:15;;;;;;;10.85;7.15;;;17.90;99.90;;;;;;5053474;28;20033;-62
2021/07/27 05:32:42;;;;;;;12.65;7.47;;;18.00;99.90;;;;;;5033755;28;20099;-62
2021/07/27 05:35:10;;;;;;;13.20;8.38;;;18.00;99.90;;;;;;5013412;28;20055;-62
2021/07/27 05:37:37;;;;;;;13.82;8.18;;;18.10;99.90;;;;;;5014830;28;20487;-62
2021/07/27 05:40:06;;;;;;;10.32;7.22;;;18.20;99.90;;;;;;5014858;28;20389;-61
2021/07/27 05:42:32;;;;;;;10.90;6.78;;;18.30;99.90;;;;;;5013535;28;20116;-62
2021/07/27 05:44:58;;;;;;;11.80;7.50;;;18.40;99.90;;;;;;5014719;28;20085;-62
2021/07/27 05:47:24;;;;;;;13.23;6.90;;;18.50;99.90;;;;;;5015038;28;20034;-62
2021/07/27 05:49:49;;;;;;;9.02;6.47;;;18.60;99.90;;;;;;5014788;28;20053;-61
2021/07/27 05:52:15;;;;;;;11.52;6.30;;;18.60;99.90;;;;;;5014459;28;20030;-62
2021/07/27 05:54:44;;;;;;;12.30;7.28;;;18.70;99.90;;;;;;5013805;28;20134;-62
2021/07/27 05:57:14;;;;;;;11.80;6.10;;;18.70;99.90;;;;;;5013548;28;20033;-62
2021/07/27 05:59:42;;;;;;;8.98;5.85;;;18.80;99.90;;;;;;5014816;28;20120;-61
2021/07/27 06:02:09;;;;;;;8.82;5.40;;;18.90;99.90;;;;;;5014458;28;20030;-61
2021/07/27 06:04:35;;;;;;;10.20;6.63;;;18.90;99.90;;;;;;5018670;28;20029;-61
2021/07/27 06:07:04;;;;;;;10.05;6.28;;;19.10;99.90;;;;;;5053146;28;20025;-61
2021/07/27 06:09:30;;;;;;;9.57;5.80;;;19.10;99.90;;;;;;5054032;28;20067;-61
2021/07/27 06:11:56;;;;;;;14.02;7.20;;;19.30;99.90;;;;;;5054186;28;20056;-61
2021/07/27 06:14:22;;;;;;;11.85;6.18;;;19.50;99.90;;;;;;5053173;28;20033;-61
2021/07/27 06:16:48;;;;;;;10.25;5.78;;;19.70;99.90;;;;;;5053937;28;20021;-61
2021/07/27 06:19:13;;;;;;;9.70;6.32;;;19.80;99.90;;;;;;5053907;28;20087;-61
2021/07/27 06:21:40;;;;;;;9.27;6.32;;;19.90;99.90;;;;;;5053672;28;20032;-61
2021/07/27 06:24:08;;;;;;;16.48;9.48;;;19.90;99.90;;;;;;5054146;28;20033;-61
2021/07/27 06:26:34;;;;;;;9.70;5.78;;;20.10;99.90;;;;;;5053518;28;20439;-61
2021/07/27 06:29:01;;;;;;;9.30;5.47;;;20.10;99.90;;;;;;5053769;28;20466;-61
2021/07/27 06:31:27;;;;;;;12.32;5.65;;;20.00;99.90;;;;;;5053831;28;20461;-61
2021/07/27 06:33:53;;;;;;;12.38;7.32;;;20.00;99.90;;;;;;5053708;28;20058;-61
2021/07/27 06:36:19;;;;;;;9.95;5.40;;;20.20;99.90;;;;;;5054033;28;20048;-62
2021/07/27 06:38:44;;;;;;;8.60;5.35;;;20.30;99.90;;;;;;5053742;28;20398;-61
2021/07/27 06:41:12;;;;;;;9.02;4.95;;;20.60;99.90;;;;;;5053699;28;20032;-60
2021/07/27 06:43:41;;;;;;;14.85;6.80;;;20.80;99.90;;;;;;5053562;28;20033;-61
2021/07/27 06:46:09;;;;;;;9.27;5.20;;;20.50;99.90;;;;;;5053493;28;20056;-61
2021/07/27 06:48:34;;;;;;;8.77;4.70;;;20.70;99.90;;;;;;5053505;28;20029;-61
2021/07/27 06:51:15;;;;;;;8.20;4.30;;;20.80;99.90;;;;;;5053539;28;20029;-61
2021/07/27 06:53:42;;;;;;;7.13;4.53;;;20.90;99.90;;;;;;5053523;28;20119;-60
2021/07/27 06:56:09;;;;;;;11.05;5.03;;;20.90;99.90;;;;;;5053485;28;20330;-61
2021/07/27 06:58:36;;;;;;;7.55;4.40;;;20.90;99.90;;;;;;5035747;28;20063;-61
2021/07/27 07:01:08;;;;;;;9.95;5.30;;;20.80;99.90;;;;;;5051764;28;20041;-62
2021/07/27 07:03:36;;;;;;;9.27;5.82;;;20.70;99.90;;;;;;5053345;28;20036;-62
2021/07/27 07:06:03;;;;;;;10.27;6.60;;;20.60;99.90;;;;;;5052092;28;20052;-61
2021/07/27 07:08:28;;;;;;;9.57;5.15;;;20.70;99.90;;;;;;5053123;28;20033;-61
2021/07/27 07:11:03;;;;;;;8.68;5.20;;;20.80;99.90;;;;;;5053143;28;20029;-61
2021/07/27 07:13:30;;;;;;;16.80;9.48;;;21.00;99.90;;;;;;5052834;28;20032;-62
2021/07/27 07:15:55;;;;;;;13.05;7.65;;;21.00;99.90;;;;;;5052990;28;20035;-61
2021/07/27 07:18:22;;;;;;;7.68;4.65;;;21.20;99.90;;;;;;5052560;28;20040;-61
2021/07/27 07:20:51;;;;;;;8.38;4.82;;;21.50;99.90;;;;;;5051786;28;20545;-60
2021/07/27 07:23:18;;;;;;;9.48;4.55;;;21.70;99.90;;;;;;5051307;28;20050;-61
2021/07/27 07:25:44;;;;;;;7.03;4.35;;;21.40;99.90;;;;;;5052715;28;20029;-61
2021/07/27 07:28:11;;;;;;;10.38;5.40;;;21.60;99.90;;;;;;5051525;28;20033;-60
2021/07/27 07:30:37;;;;;;;9.10;4.93;;;21.40;99.90;;;;;;5052947;28;20033;-60
2021/07/27 07:33:03;;;;;;;7.53;5.30;;;21.20;99.90;;;;;;5051813;28;20033;-60
2021/07/27 07:35:29;;;;;;;9.70;5.22;;;21.00;99.90;;;;;;5052623;28;20095;-60
2021/07/27 07:37:55;;;;;;;8.73;5.18;;;21.00;99.90;;;;;;5052580;28;20029;-61
2021/07/27 07:40:22;;;;;;;9.63;5.75;;;21.00;99.90;;;;;;5052675;28;20037;-61
2021/07/27 07:42:48;;;;;;;10.48;5.20;;;21.00;99.90;;;;;;5052759;28;20373;-61
2021/07/27 07:45:14;;;;;;;7.95;5.47;;;20.90;99.90;;;;;;5052099;28;20533;-63
2021/07/27 07:47:42;;;;;;;7.95;5.10;;;20.90;99.90;;;;;;5052236;28;20065;-62
2021/07/27 07:50:12;;;;;;;10.88;4.78;;;21.00;99.90;;;;;;5052394;28;20033;-62
2021/07/27 07:52:38;;;;;;;11.70;4.97;;;21.00;99.90;;;;;;5052570;28;20390;-62
2021/07/27 07:55:07;;;;;;;9.50;4.68;;;21.20;99.90;;;;;;5052471;28;20028;-62
2021/07/27 07:57:34;;;;;;;9.48;4.97;;;21.30;99.90;;;;;;5052569;28;20095;-63
2021/07/27 08:00:01;;;;;;;9.05;5.45;;;21.40;99.90;;;;;;5052285;28;20037;-63
2021/07/27 08:02:30;;;;;;;6.80;4.60;;;21.30;99.90;;;;;;5048653;28;20037;-63
2021/07/27 08:04:56;;;;;;;6.88;4.60;;;21.40;99.90;;;;;;5052140;28;20028;-63
2021/07/27 08:07:25;;;;;;;6.70;4.40;;;21.40;99.90;;;;;;5052293;28;20478;-61
2021/07/27 08:09:50;;;;;;;7.47;4.70;;;21.40;99.90;;;;;;5052176;28;20055;-62
2021/07/27 08:12:17;;;;;;;9.07;5.40;;;21.30;99.90;;;;;;5051905;28;20482;-62
2021/07/27 08:14:44;;;;;;;7.60;4.97;;;21.50;99.90;;;;;;5050769;28;20067;-62
2021/07/27 08:17:11;;;;;;;9.18;5.13;;;21.60;99.90;;;;;;5052117;28;20033;-63
2021/07/27 08:19:37;;;;;;;8.27;5.10;;;21.60;99.90;;;;;;5052196;28;20045;-62
2021/07/27 08:22:04;;;;;;;5.95;4.32;;;21.80;99.90;;;;;;5050619;28;20095;-63
2021/07/27 08:24:32;;;;;;;7.60;4.82;;;21.50;99.90;;;;;;5051980;28;20040;-63
2021/07/27 08:26:58;;;;;;;7.68;5.13;;;21.70;99.90;;;;;;5051889;28;20033;-63
2021/07/27 08:29:24;;;;;;;9.90;4.68;;;21.70;99.90;;;;;;5050523;28;20075;-63
2021/07/27 08:31:50;;;;;;;7.78;4.90;;;21.70;99.90;;;;;;5052207;28;20029;-63
2021/07/27 08:34:18;;;;;;;10.50;5.20;;;21.60;99.90;;;;;;5050658;28;20037;-62
2021/07/27 08:36:45;;;;;;;6.82;4.65;;;21.60;99.90;;;;;;5050882;28;20029;-62
2021/07/27 08:39:12;;;;;;;8.15;4.40;;;21.60;99.90;;;;;;5050695;28;20033;-62
2021/07/27 08:41:39;;;;;;;8.48;4.63;;;21.70;99.90;;;;;;5052043;28;20052;-63
2021/07/27 08:44:16;;;;;;;8.20;4.65;;;22.00;99.90;;;;;;5053957;28;20112;-62
2021/07/27 08:46:46;;;;;;;7.32;4.60;;;22.10;99.90;;;;;;5054974;28;20033;-62
2021/07/27 08:49:15;;;;;;;7.70;4.70;;;22.10;99.90;;;;;;5055497;28;20032;-62
2021/07/27 08:51:43;;;;;;;9.75;4.80;;;22.30;99.90;;;;;;5054352;28;20032;-62
2021/07/27 08:54:09;;;;;;;8.60;4.88;;;22.30;99.90;;;;;;5055773;28;20381;-62
2021/07/27 08:56:51;;;;;;;9.82;5.10;;;22.20;99.90;;;;;;5054615;28;20025;-62
2021/07/27 08:59:17;;;;;;;7.00;4.53;;;22.20;99.90;;;;;;5054004;28;20136;-62
2021/07/27 09:01:43;;;;;;;9.43;4.80;;;22.30;99.90;;;;;;5054242;28;20068;-62
2021/07/27 09:04:10;;;;;;;6.25;4.18;;;22.40;99.90;;;;;;5055182;28;20040;-62
2021/07/27 09:06:37;;;;;;;7.30;4.28;;;22.60;99.90;;;;;;5055301;28;20381;-62
2021/07/27 09:09:08;;;;;;;9.05;4.32;;;22.80;99.90;;;;;;5054865;28;20429;-62
2021/07/27 09:11:49;;;;;;;7.22;4.22;;;22.90;99.90;;;;;;5055008;28;20036;-62
2021/07/27 09:14:22;;;;;;;8.45;4.32;;;23.10;99.90;;;;;;5054799;28;20051;-62
2021/07/27 09:16:53;;;;;;;6.85;4.57;;;23.10;99.90;;;;;;5055406;28;20107;-62
2021/07/27 09:19:19;;;;;;;8.30;4.10;;;23.30;99.90;;;;;;5054960;28;20068;-63
2021/07/27 09:21:46;;;;;;;14.85;5.97;;;23.30;99.90;;;;;;5055096;28;20025;-62
2021/07/27 09:24:21;;;;;;;7.38;4.05;;;23.30;99.90;;;;;;5053972;28;20033;-63
2021/07/27 09:27:05;;;;;;;8.43;4.03;;;23.40;99.90;;;;;;5055349;28;20086;-63
2021/07/27 09:29:41;;;;;;;5.95;4.28;;;23.70;99.90;;;;;;5053967;28;20367;-63
2021/07/27 09:32:14;;;;;;;6.60;4.30;;;23.90;99.90;;;;;;5055141;28;20021;-63
2021/07/27 09:34:40;;;;;;;6.35;4.32;;;23.90;99.90;;;;;;5055151;28;20036;-62
2021/07/27 09:37:07;;;;;;;69.40;8.60;;;23.90;99.90;;;;;;5054955;28;20035;-62
2021/07/27 09:39:36;;;;;;;23.45;5.22;;;24.10;99.90;;;;;;5054984;28;20040;-63
2021/07/27 09:42:08;;;;;;;6.15;4.13;;;24.00;99.90;;;;;;5054809;28;20496;-63
2021/07/27 09:44:39;;;;;;;6.82;4.38;;;24.20;99.90;;;;;;5054581;28;20124;-63
2021/07/27 09:47:06;;;;;;;8.65;4.88;;;24.00;99.90;;;;;;5053692;28;20086;-63
2021/07/27 09:49:32;;;;;;;7.32;4.50;;;24.20;99.90;;;;;;5053511;28;20037;-63
2021/07/27 09:51:58;;;;;;;5.25;3.53;;;24.10;99.90;;;;;;5053641;28;20035;-63
2021/07/27 09:54:26;;;;;;;7.55;4.22;;;24.30;99.90;;;;;;5054394;28;20460;-63
2021/07/27 09:56:54;;;;;;;5.68;4.25;;;24.00;99.90;;;;;;5051119;28;20075;-63
2021/07/27 09:59:25;;;;;;;8.07;4.50;;;24.20;99.90;;;;;;5054094;28;20049;-63
2021/07/27 10:02:01;;;;;;;8.18;3.95;;;24.30;99.90;;;;;;5036956;28;20498;-63
2021/07/27 10:04:37;;;;;;;8.60;4.22;;;24.30;99.90;;;;;;5054050;28;20501;-63
2021/07/27 10:07:06;;;;;;;8.35;3.92;;;24.20;99.90;;;;;;5054006;28;20021;-63
2021/07/27 10:09:35;;;;;;;6.93;4.15;;;24.10;99.90;;;;;;5053257;28;20518;-63
2021/07/27 10:12:14;;;;;;;6.03;3.85;;;24.20;99.90;;;;;;5054566;28;20071;-63
2021/07/27 10:14:44;;;;;;;7.38;4.35;;;24.30;99.90;;;;;;5054163;28;20025;-63
2021/07/27 10:17:11;;;;;;;5.03;3.50;;;24.30;99.90;;;;;;5052693;28;20037;-63
2021/07/27 10:19:56;;;;;;;9.48;4.20;;;24.40;99.90;;;;;;5054203;28;20021;-61
2021/07/27 10:22:31;;;;;;;6.60;3.92;;;24.60;99.90;;;;;;5054213;28;20423;-62
2021/07/27 10:24:58;;;;;;;7.32;3.90;;;24.80;99.90;;;;;;5054176;28;20029;-63
2021/07/27 10:27:26;;;;;;;9.95;3.92;;;24.90;99.90;;;;;;5053738;28;20060;-63
2021/07/27 10:30:07;;;;;;;6.57;3.72;;;25.00;99.90;;;;;;5054004;28;20025;-63
2021/07/27 10:32:32;;;;;;;5.75;3.75;;;25.10;99.90;;;;;;5052874;28;20485;-63
2021/07/27 10:34:58;;;;;;;4.75;3.63;;;24.90;99.90;;;;;;5053873;28;20079;-63
2021/07/27 10:37:24;;;;;;;7.70;3.83;;;24.90;99.90;;;;;;5053846;28;20025;-63
2021/07/27 10:39:59;;;;;;;6.75;3.90;;;25.00;99.90;;;;;;5052276;28;20029;-63
2021/07/27 10:42:37;;;;;;;7.15;4.40;;;25.00;99.90;;;;;;5034325;28;20124;-63
2021/07/27 10:45:04;;;;;;;7.60;4.00;;;25.10;99.90;;;;;;5033436;28;20053;-64
2021/07/27 10:47:29;;;;;;;8.57;4.40;;;24.90;99.90;;;;;;5027125;28;20033;-64
2021/07/27 10:50:00;;;;;;;6.43;4.05;;;25.00;99.90;;;;;;5031278;28;20036;-63
2021/07/27 10:52:27;;;;;;;5.75;4.00;;;24.90;99.90;;;;;;5033512;28;20034;-63
2021/07/27 10:54:57;;;;;;;7.28;4.25;;;24.80;99.90;;;;;;5033659;28;20455;-63
2021/07/27 10:57:34;;;;;;;9.38;4.03;;;24.70;99.90;;;;;;5033054;28;20461;-63
2021/07/27 11:00:05;;;;;;;7.15;4.22;;;24.70;99.90;;;;;;5033590;28;20042;-63
2021/07/27 11:02:31;;;;;;;8.25;4.38;;;24.70;99.90;;;;;;5033531;28;20037;-63
2021/07/27 11:04:56;;;;;;;6.43;3.80;;;24.50;99.90;;;;;;5033320;28;20100;-63
2021/07/27 11:07:22;;;;;;;6.22;3.88;;;24.60;99.90;;;;;;5031992;28;20076;-64
2021/07/27 11:09:55;;;;;;;6.22;4.07;;;24.80;99.90;;;;;;5033011;28;20033;-64
2021/07/27 11:12:31;;;;;;;5.70;3.78;;;24.90;99.90;;;;;;5033202;28;20038;-64
2021/07/27 11:15:25;;;;;;;6.30;4.28;;;24.80;99.90;;;;;;5033029;28;20033;-64
2021/07/27 11:18:00;;;;;;;6.47;3.97;;;24.60;99.90;;;;;;5032459;28;20117;-64
2021/07/27 11:20:34;;;;;;;6.63;3.92;;;24.90;99.90;;;;;;5032786;28;20076;-64
2021/07/27 11:23:13;;;;;;;7.60;4.00;;;25.00;99.90;;;;;;5032834;28;20053;-64
2021/07/27 11:25:40;;;;;;;6.90;4.63;;;25.20;99.90;;;;;;5033098;28;20034;-64
2021/07/27 11:28:14;;;;;;;7.43;3.95;;;25.10;99.90;;;;;;5032717;28;20109;-64
2021/07/27 11:30:42;;;;;;;6.45;3.95;;;24.80;99.90;;;;;;5032952;28;20053;-64
2021/07/27 11:33:11;;;;;;;6.78;4.28;;;24.80;99.90;;;;;;5032769;28;20025;-67
2021/07/27 11:35:49;;;;;;;8.82;4.35;;;24.90;99.90;;;;;;5032896;28;20116;-64
2021/07/27 11:38:30;;;;;;;7.20;4.10;;;24.90;99.90;;;;;;5032883;28;20033;-63
2021/07/27 11:41:02;;;;;;;5.68;3.85;;;24.80;99.90;;;;;;5032766;28;20555;-64
2021/07/27 11:43:33;;;;;;;7.35;3.90;;;25.20;99.90;;;;;;5032657;28;20038;-63
2021/07/27 11:46:12;;;;;;;6.05;4.40;;;25.20;99.80;;;;;;5032448;28;20033;-63
2021/07/27 11:48:39;;;;;;;6.47;3.63;;;25.20;99.50;;;;;;5031422;28;20060;-63
2021/07/27 11:51:05;;;;;;;6.95;4.05;;;25.30;99.00;;;;;;5034923;28;20045;-63
2021/07/27 11:53:34;;;;;;;7.75;4.18;;;25.30;99.50;;;;;;5032163;28;20099;-63
2021/07/27 11:56:15;;;;;;;6.82;4.10;;;25.50;99.90;;;;;;5032212;28;20494;-63
2021/07/27 11:58:41;;;;;;;6.38;4.35;;;25.50;99.60;;;;;;5032665;28;20068;-63
2021/07/27 12:01:07;;;;;;;7.90;4.45;;;25.30;99.90;;;;;;5032133;28;20367;-63
2021/07/27 12:03:33;;;;;;;8.20;3.80;;;25.70;99.90;;;;;;5032290;28;20049;-63
2021/07/27 12:06:13;;;;;;;7.15;4.28;;;26.00;99.60;;;;;;5032130;28;20037;-63
2021/07/27 12:08:40;;;;;;;6.68;3.92;;;26.50;99.40;;;;;;5032414;28;20036;-63
2021/07/27 12:11:06;;;;;;;7.47;4.35;;;26.60;98.80;;;;;;5032382;28;20037;-63
2021/07/27 12:13:32;;;;;;;6.63;4.03;;;26.60;98.30;;;;;;5030992;28;20026;-63
2021/07/27 12:15:59;;;;;;;6.10;3.90;;;26.60;98.80;;;;;;5030945;28;20044;-63
2021/07/27 12:18:25;;;;;;;8.35;4.03;;;26.70;98.70;;;;;;5030310;28;20112;-63
2021/07/27 12:20:52;;;;;;;7.35;4.55;;;26.90;97.60;;;;;;5031910;28;20052;-64
2021/07/27 12:23:18;;;;;;;7.43;4.88;;;26.80;97.20;;;;;;5031809;28;20033;-61
2021/07/27 12:25:44;;;;;;;7.68;4.47;;;26.90;97.30;;;;;;5031960;28;20053;-63
2021/07/27 12:28:11;;;;;;;6.28;4.22;;;26.50;98.00;;;;;;5031724;28;20041;-63
2021/07/27 12:30:37;;;;;;;6.07;3.70;;;26.30;97.70;;;;;;5032283;28;20041;-64
2021/07/27 12:33:03;;;;;;;8.20;4.10;;;26.10;97.90;;;;;;5030848;28;20033;-63
2021/07/27 12:35:29;;;;;;;5.40;3.92;;;26.10;98.20;;;;;;5031987;28;20111;-64
2021/07/27 12:37:56;;;;;;;7.90;4.78;;;25.90;98.90;;;;;;5030870;28;20025;-63
2021/07/27 12:40:22;;;;;;;7.28;4.18;;;25.80;99.50;;;;;;5030859;28;20088;-63
2021/07/27 12:42:48;;;;;;;5.95;4.28;;;26.20;99.10;;;;;;5032016;28;20029;-64
2021/07/27 12:45:14;;;;;;;7.18;4.47;;;26.30;99.40;;;;;;5031565;28;20046;-63
2021/07/27 12:47:40;;;;;;;6.05;4.68;;;26.30;98.10;;;;;;5031726;28;20033;-63
2021/07/27 12:50:07;;;;;;;5.22;3.70;;;26.40;98.50;;;;;;5031783;28;20175;-63
2021/07/27 12:52:33;;;;;;;5.68;3.92;;;26.40;97.90;;;;;;5031883;28;20090;-64
2021/07/27 12:54:59;;;;;;;6.57;4.35;;;26.30;98.20;;;;;;5032103;28;20033;-63
2021/07/27 12:57:25;;;;;;;6.47;4.30;;;26.30;98.20;;;;;;5031520;28;20026;-63
2021/07/27 12:59:51;;;;;;;7.82;4.38;;;26.20;97.90;;;;;;5031726;28;20119;-64
2021/07/27 13:02:21;;;;;;;7.38;4.10;;;26.20;98.50;;;;;;5031672;28;20130;-64
2021/07/27 13:04:47;;;;;;;8.18;4.22;;;26.00;98.60;;;;;;5030643;28;20033;-63
2021/07/27 13:07:14;;;;;;;11.93;5.03;;;26.00;99.10;;;;;;5031182;28;20437;-64
2021/07/27 13:09:40;;;;;;;7.05;4.45;;;26.10;98.60;;;;;;5030515;28;20056;-64
2021/07/27 13:12:06;;;;;;;8.27;4.70;;;26.00;98.90;;;;;;5031784;28;20470;-64
2021/07/27 13:14:32;;;;;;;6.22;4.40;;;25.80;99.50;;;;;;5031706;28;20033;-64
2021/07/27 13:17:00;;;;;;;7.07;4.90;;;25.90;98.80;;;;;;5031725;28;20040;-63